sensor_id;sensor_type;location;lat;lon;timestamp;P1;durP1;ratioP1;P2;durP2;ratioP2
9254;SDS011;4663;49.120;9.730;2023-03-20T00:03:41;45.50;;;43.17;;
9254;SDS011;4663;49.120;9.730;2023-03-20T00:06:16;42.73;;;40.43;;
9254;SDS011;4663;49.120;9.730;2023-03-20T00:08:47;36.07;;;34.17;;
9254;SDS011;4663;49.120;9.730;2023-03-20T00:13:56;30.13;;;28.53;;
9254;SDS011;4663;49.120;9.730;2023-03-20T00:16:24;26.80;;;25.27;;
9254;SDS011;4663;49.120;9.730;2023-03-20T00:18:54;26.87;;;25.20;;
9254;SDS011;4663;49.120;9.730;2023-03-20T00:21:20;26.20;;;24.40;;
9254;SDS011;4663;49.120;9.730;2023-03-20T00:23:46;26.40;;;24.90;;
9254;SDS011;4663;49.120;9.730;2023-03-20T00:26:15;26.27;;;24.80;;
9254;SDS011;4663;49.120;9.730;2023-03-20T00:28:44;25.13;;;23.83;;
9254;SDS011;4663;49.120;9.730;2023-03-20T00:31:23;23.87;;;22.57;;
9254;SDS011;4663;49.120;9.730;2023-03-20T00:33:54;24.90;;;23.50;;
9254;SDS011;4663;49.120;9.730;2023-03-20T00:36:21;24.80;;;23.43;;
9254;SDS011;4663;49.120;9.730;2023-03-20T00:38:47;23.70;;;22.50;;
9254;SDS011;4663;49.120;9.730;2023-03-20T00:41:20;24.13;;;22.83;;
9254;SDS011;4663;49.120;9.730;2023-03-20T00:43:47;23.83;;;22.63;;
9254;SDS011;4663;49.120;9.730;2023-03-20T00:46:14;26.37;;;24.87;;
9254;SDS011;4663;49.120;9.730;2023-03-20T00:48:40;23.63;;;22.33;;
9254;SDS011;4663;49.120;9.730;2023-03-20T00:51:07;22.60;;;21.50;;
9254;SDS011;4663;49.120;9.730;2023-03-20T00:53:34;25.23;;;23.93;;
9254;SDS011;4663;49.120;9.730;2023-03-20T00:55:59;24.27;;;23.03;;
9254;SDS011;4663;49.120;9.730;2023-03-20T00:58:25;25.23;;;23.80;;
9254;SDS011;4663;49.120;9.730;2023-03-20T01:00:50;25.23;;;23.90;;
9254;SDS011;4663;49.120;9.730;2023-03-20T01:03:20;25.97;;;24.53;;
9254;SDS011;4663;49.120;9.730;2023-03-20T01:05:48;25.57;;;24.23;;
9254;SDS011;4663;49.120;9.730;2023-03-20T01:08:16;24.83;;;23.57;;
9254;SDS011;4663;49.120;9.730;2023-03-20T01:10:44;24.90;;;23.57;;
9254;SDS011;4663;49.120;9.730;2023-03-20T01:15:47;25.47;;;24.10;;
9254;SDS011;4663;49.120;9.730;2023-03-20T01:18:14;25.33;;;24.00;;
9254;SDS011;4663;49.120;9.730;2023-03-20T01:20:41;25.33;;;24.03;;
9254;SDS011;4663;49.120;9.730;2023-03-20T01:23:07;28.17;;;26.73;;
9254;SDS011;4663;49.120;9.730;2023-03-20T01:25:32;28.27;;;26.80;;
9254;SDS011;4663;49.120;9.730;2023-03-20T01:27:58;33.37;;;31.60;;
9254;SDS011;4663;49.120;9.730;2023-03-20T01:30:25;38.00;;;36.10;;
9254;SDS011;4663;49.120;9.730;2023-03-20T01:32:54;39.30;;;37.33;;
9254;SDS011;4663;49.120;9.730;2023-03-20T01:35:21;42.47;;;40.07;;
9254;SDS011;4663;49.120;9.730;2023-03-20T01:37:51;41.20;;;39.10;;
9254;SDS011;4663;49.120;9.730;2023-03-20T01:43:09;41.93;;;39.63;;
9254;SDS011;4663;49.120;9.730;2023-03-20T01:45:51;42.80;;;40.70;;
9254;SDS011;4663;49.120;9.730;2023-03-20T01:48:18;42.00;;;39.70;;
9254;SDS011;4663;49.120;9.730;2023-03-20T01:50:46;45.03;;;42.73;;
9254;SDS011;4663;49.120;9.730;2023-03-20T01:53:16;46.73;;;44.20;;
9254;SDS011;4663;49.120;9.730;2023-03-20T01:55:45;47.60;;;45.13;;
9254;SDS011;4663;49.120;9.730;2023-03-20T01:58:16;51.93;;;49.23;;
9254;SDS011;4663;49.120;9.730;2023-03-20T02:00:46;53.87;;;51.07;;
9254;SDS011;4663;49.120;9.730;2023-03-20T02:03:13;56.13;;;53.33;;
9254;SDS011;4663;49.120;9.730;2023-03-20T02:05:39;56.53;;;53.60;;
9254;SDS011;4663;49.120;9.730;2023-03-20T02:10:46;51.10;;;48.47;;
9254;SDS011;4663;49.120;9.730;2023-03-20T02:13:14;52.17;;;49.60;;
9254;SDS011;4663;49.120;9.730;2023-03-20T02:18:28;51.43;;;48.87;;
9254;SDS011;4663;49.120;9.730;2023-03-20T02:23:43;50.47;;;47.90;;
9254;SDS011;4663;49.120;9.730;2023-03-20T02:32:05;50.27;;;47.70;;
9254;SDS011;4663;49.120;9.730;2023-03-20T02:37:39;47.67;;;45.27;;
9254;SDS011;4663;49.120;9.730;2023-03-20T02:43:13;53.07;;;50.33;;
9254;SDS011;4663;49.120;9.730;2023-03-20T02:45:47;51.33;;;48.77;;
9254;SDS011;4663;49.120;9.730;2023-03-20T02:54:15;49.50;;;47.13;;
9254;SDS011;4663;49.120;9.730;2023-03-20T03:02:08;42.97;;;40.73;;
9254;SDS011;4663;49.120;9.730;2023-03-20T03:04:58;44.93;;;42.67;;
9254;SDS011;4663;49.120;9.730;2023-03-20T03:07:29;42.60;;;40.17;;
9254;SDS011;4663;49.120;9.730;2023-03-20T03:10:16;44.70;;;42.20;;
9254;SDS011;4663;49.120;9.730;2023-03-20T03:12:48;48.17;;;45.60;;
9254;SDS011;4663;49.120;9.730;2023-03-20T03:15:18;44.23;;;41.97;;
9254;SDS011;4663;49.120;9.730;2023-03-20T03:17:49;46.13;;;43.70;;
9254;SDS011;4663;49.120;9.730;2023-03-20T03:20:19;43.70;;;41.47;;
9254;SDS011;4663;49.120;9.730;2023-03-20T03:22:51;46.73;;;44.17;;
9254;SDS011;4663;49.120;9.730;2023-03-20T03:25:17;43.40;;;41.17;;
9254;SDS011;4663;49.120;9.730;2023-03-20T03:27:48;42.23;;;39.87;;
9254;SDS011;4663;49.120;9.730;2023-03-20T03:30:23;40.53;;;38.20;;
9254;SDS011;4663;49.120;9.730;2023-03-20T03:35:40;42.83;;;40.57;;
9254;SDS011;4663;49.120;9.730;2023-03-20T03:43:45;35.40;;;33.57;;
9254;SDS011;4663;49.120;9.730;2023-03-20T03:46:17;36.10;;;34.17;;
9254;SDS011;4663;49.120;9.730;2023-03-20T03:48:50;37.73;;;35.77;;
9254;SDS011;4663;49.120;9.730;2023-03-20T03:51:20;34.93;;;33.20;;
9254;SDS011;4663;49.120;9.730;2023-03-20T03:53:51;39.70;;;37.73;;
9254;SDS011;4663;49.120;9.730;2023-03-20T03:56:24;37.97;;;36.07;;
9254;SDS011;4663;49.120;9.730;2023-03-20T03:58:52;38.37;;;36.23;;
9254;SDS011;4663;49.120;9.730;2023-03-20T04:01:21;36.83;;;35.03;;
9254;SDS011;4663;49.120;9.730;2023-03-20T04:03:50;37.17;;;35.27;;
9254;SDS011;4663;49.120;9.730;2023-03-20T04:06:20;35.57;;;33.63;;
9254;SDS011;4663;49.120;9.730;2023-03-20T04:08:45;36.33;;;34.37;;
9254;SDS011;4663;49.120;9.730;2023-03-20T04:11:13;33.87;;;32.03;;
9254;SDS011;4663;49.120;9.730;2023-03-20T04:13:40;33.17;;;31.50;;
9254;SDS011;4663;49.120;9.730;2023-03-20T04:16:06;32.73;;;30.97;;
9254;SDS011;4663;49.120;9.730;2023-03-20T04:18:37;34.33;;;32.60;;
9254;SDS011;4663;49.120;9.730;2023-03-20T04:21:03;34.30;;;32.37;;
9254;SDS011;4663;49.120;9.730;2023-03-20T04:23:28;32.50;;;30.50;;
9254;SDS011;4663;49.120;9.730;2023-03-20T04:25:54;32.60;;;30.97;;
9254;SDS011;4663;49.120;9.730;2023-03-20T04:28:19;29.33;;;27.87;;
9254;SDS011;4663;49.120;9.730;2023-03-20T04:30:50;31.30;;;29.70;;
9254;SDS011;4663;49.120;9.730;2023-03-20T04:33:19;29.17;;;27.63;;
9254;SDS011;4663;49.120;9.730;2023-03-20T04:35:45;29.30;;;27.80;;
9254;SDS011;4663;49.120;9.730;2023-03-20T04:38:11;30.53;;;28.70;;
9254;SDS011;4663;49.120;9.730;2023-03-20T04:40:36;29.20;;;27.40;;
9254;SDS011;4663;49.120;9.730;2023-03-20T04:43:02;27.60;;;26.10;;
9254;SDS011;4663;49.120;9.730;2023-03-20T04:45:27;27.50;;;26.20;;
9254;SDS011;4663;49.120;9.730;2023-03-20T04:47:52;27.20;;;25.67;;
9254;SDS011;4663;49.120;9.730;2023-03-20T04:50:18;26.30;;;25.00;;
9254;SDS011;4663;49.120;9.730;2023-03-20T04:52:44;25.73;;;24.53;;
9254;SDS011;4663;49.120;9.730;2023-03-20T04:55:09;25.73;;;24.27;;
9254;SDS011;4663;49.120;9.730;2023-03-20T04:57:34;26.40;;;25.10;;
9254;SDS011;4663;49.120;9.730;2023-03-20T05:00:00;27.23;;;25.87;;
9254;SDS011;4663;49.120;9.730;2023-03-20T05:02:25;27.30;;;25.97;;
9254;SDS011;4663;49.120;9.730;2023-03-20T05:04:51;29.37;;;27.97;;
9254;SDS011;4663;49.120;9.730;2023-03-20T05:07:16;27.53;;;26.13;;
9254;SDS011;4663;49.120;9.730;2023-03-20T05:09:42;28.80;;;27.33;;
9254;SDS011;4663;49.120;9.730;2023-03-20T05:12:07;26.93;;;25.53;;
9254;SDS011;4663;49.120;9.730;2023-03-20T05:14:36;28.40;;;26.97;;
9254;SDS011;4663;49.120;9.730;2023-03-20T05:17:02;44.23;;;42.17;;
9254;SDS011;4663;49.120;9.730;2023-03-20T05:19:27;27.03;;;25.73;;
9254;SDS011;4663;49.120;9.730;2023-03-20T05:21:53;29.50;;;28.00;;
9254;SDS011;4663;49.120;9.730;2023-03-20T05:24:18;28.87;;;27.47;;
9254;SDS011;4663;49.120;9.730;2023-03-20T05:26:44;30.17;;;28.63;;
9254;SDS011;4663;49.120;9.730;2023-03-20T05:29:10;31.23;;;29.70;;
9254;SDS011;4663;49.120;9.730;2023-03-20T05:31:35;34.47;;;32.70;;
9254;SDS011;4663;49.120;9.730;2023-03-20T05:34:01;33.20;;;31.57;;
9254;SDS011;4663;49.120;9.730;2023-03-20T05:36:26;32.00;;;30.40;;
9254;SDS011;4663;49.120;9.730;2023-03-20T05:38:51;34.47;;;32.80;;
9254;SDS011;4663;49.120;9.730;2023-03-20T05:41:17;32.67;;;31.07;;
9254;SDS011;4663;49.120;9.730;2023-03-20T05:43:42;34.43;;;32.33;;
9254;SDS011;4663;49.120;9.730;2023-03-20T05:46:07;31.73;;;30.13;;
9254;SDS011;4663;49.120;9.730;2023-03-20T05:48:33;31.97;;;30.27;;
9254;SDS011;4663;49.120;9.730;2023-03-20T05:50:58;33.10;;;31.13;;
9254;SDS011;4663;49.120;9.730;2023-03-20T05:53:24;30.27;;;28.70;;
9254;SDS011;4663;49.120;9.730;2023-03-20T05:55:49;32.80;;;31.00;;
9254;SDS011;4663;49.120;9.730;2023-03-20T05:58:15;30.60;;;29.00;;
9254;SDS011;4663;49.120;9.730;2023-03-20T06:00:40;29.00;;;27.47;;
9254;SDS011;4663;49.120;9.730;2023-03-20T06:03:06;29.17;;;27.60;;
9254;SDS011;4663;49.120;9.730;2023-03-20T06:05:31;28.47;;;27.03;;
9254;SDS011;4663;49.120;9.730;2023-03-20T06:07:58;28.77;;;27.23;;
9254;SDS011;4663;49.120;9.730;2023-03-20T06:10:23;25.03;;;23.73;;
9254;SDS011;4663;49.120;9.730;2023-03-20T06:12:49;26.43;;;25.00;;
9254;SDS011;4663;49.120;9.730;2023-03-20T06:15:14;25.33;;;24.00;;
9254;SDS011;4663;49.120;9.730;2023-03-20T06:17:40;23.57;;;22.27;;
9254;SDS011;4663;49.120;9.730;2023-03-20T06:20:05;22.43;;;21.23;;
9254;SDS011;4663;49.120;9.730;2023-03-20T06:22:32;23.33;;;22.13;;
9254;SDS011;4663;49.120;9.730;2023-03-20T06:24:57;23.37;;;22.17;;
9254;SDS011;4663;49.120;9.730;2023-03-20T06:27:22;23.97;;;22.67;;
9254;SDS011;4663;49.120;9.730;2023-03-20T06:29:48;23.27;;;21.97;;
9254;SDS011;4663;49.120;9.730;2023-03-20T06:32:13;21.10;;;19.90;;
9254;SDS011;4663;49.120;9.730;2023-03-20T06:34:41;23.43;;;22.10;;
9254;SDS011;4663;49.120;9.730;2023-03-20T06:37:06;20.90;;;19.60;;
9254;SDS011;4663;49.120;9.730;2023-03-20T06:39:32;22.60;;;21.30;;
9254;SDS011;4663;49.120;9.730;2023-03-20T06:41:57;21.33;;;20.03;;
9254;SDS011;4663;49.120;9.730;2023-03-20T06:44:22;19.50;;;18.40;;
9254;SDS011;4663;49.120;9.730;2023-03-20T06:46:48;21.30;;;20.00;;
9254;SDS011;4663;49.120;9.730;2023-03-20T06:49:14;21.80;;;20.50;;
9254;SDS011;4663;49.120;9.730;2023-03-20T06:51:40;20.73;;;19.33;;
9254;SDS011;4663;49.120;9.730;2023-03-20T06:54:06;19.90;;;18.80;;
9254;SDS011;4663;49.120;9.730;2023-03-20T06:56:31;20.27;;;19.07;;
9254;SDS011;4663;49.120;9.730;2023-03-20T06:58:56;21.43;;;20.03;;
9254;SDS011;4663;49.120;9.730;2023-03-20T07:01:22;20.90;;;19.63;;
9254;SDS011;4663;49.120;9.730;2023-03-20T07:03:48;21.43;;;20.10;;
9254;SDS011;4663;49.120;9.730;2023-03-20T07:06:14;19.77;;;18.67;;
9254;SDS011;4663;49.120;9.730;2023-03-20T07:08:41;22.83;;;21.33;;
9254;SDS011;4663;49.120;9.730;2023-03-20T07:11:07;32.03;;;30.00;;
9254;SDS011;4663;49.120;9.730;2023-03-20T07:13:33;22.40;;;21.07;;
9254;SDS011;4663;49.120;9.730;2023-03-20T07:16:01;23.47;;;22.07;;
9254;SDS011;4663;49.120;9.730;2023-03-20T07:18:28;23.30;;;21.97;;
9254;SDS011;4663;49.120;9.730;2023-03-20T07:20:56;24.13;;;22.87;;
9254;SDS011;4663;49.120;9.730;2023-03-20T07:23:26;25.60;;;24.13;;
9254;SDS011;4663;49.120;9.730;2023-03-20T07:25:52;29.60;;;28.07;;
9254;SDS011;4663;49.120;9.730;2023-03-20T07:28:17;29.20;;;27.73;;
9254;SDS011;4663;49.120;9.730;2023-03-20T07:30:43;28.57;;;27.03;;
9254;SDS011;4663;49.120;9.730;2023-03-20T07:33:08;28.67;;;27.17;;
9254;SDS011;4663;49.120;9.730;2023-03-20T07:35:33;28.87;;;27.40;;
9254;SDS011;4663;49.120;9.730;2023-03-20T07:38:00;27.93;;;26.37;;
9254;SDS011;4663;49.120;9.730;2023-03-20T07:40:25;27.13;;;25.73;;
9254;SDS011;4663;49.120;9.730;2023-03-20T07:42:51;28.03;;;26.60;;
9254;SDS011;4663;49.120;9.730;2023-03-20T07:45:16;27.67;;;26.27;;
9254;SDS011;4663;49.120;9.730;2023-03-20T07:47:42;30.13;;;28.63;;
9254;SDS011;4663;49.120;9.730;2023-03-20T07:50:09;29.50;;;28.03;;
9254;SDS011;4663;49.120;9.730;2023-03-20T07:52:34;28.20;;;26.80;;
9254;SDS011;4663;49.120;9.730;2023-03-20T07:55:00;29.63;;;28.13;;
9254;SDS011;4663;49.120;9.730;2023-03-20T07:57:25;29.90;;;28.33;;
9254;SDS011;4663;49.120;9.730;2023-03-20T07:59:51;28.23;;;26.87;;
9254;SDS011;4663;49.120;9.730;2023-03-20T08:02:16;27.00;;;25.63;;
9254;SDS011;4663;49.120;9.730;2023-03-20T08:04:42;26.10;;;24.73;;
9254;SDS011;4663;49.120;9.730;2023-03-20T08:07:08;24.25;;;23.08;;
9254;SDS011;4663;49.120;9.730;2023-03-20T08:09:34;20.90;;;19.70;;
9254;SDS011;4663;49.120;9.730;2023-03-20T08:11:59;20.40;;;19.40;;
9254;SDS011;4663;49.120;9.730;2023-03-20T08:14:25;17.53;;;16.67;;
9254;SDS011;4663;49.120;9.730;2023-03-20T08:16:50;19.20;;;18.30;;
9254;SDS011;4663;49.120;9.730;2023-03-20T08:19:16;17.90;;;17.03;;
9254;SDS011;4663;49.120;9.730;2023-03-20T08:21:41;18.33;;;17.43;;
9254;SDS011;4663;49.120;9.730;2023-03-20T08:24:06;18.40;;;17.50;;
9254;SDS011;4663;49.120;9.730;2023-03-20T08:26:32;16.50;;;15.53;;
9254;SDS011;4663;49.120;9.730;2023-03-20T08:28:58;15.90;;;15.10;;
9254;SDS011;4663;49.120;9.730;2023-03-20T08:31:23;15.13;;;14.43;;
9254;SDS011;4663;49.120;9.730;2023-03-20T08:33:49;15.00;;;14.30;;
9254;SDS011;4663;49.120;9.730;2023-03-20T08:36:14;15.10;;;14.32;;
9254;SDS011;4663;49.120;9.730;2023-03-20T08:38:43;14.30;;;13.60;;
9254;SDS011;4663;49.120;9.730;2023-03-20T08:41:09;15.40;;;14.57;;
9254;SDS011;4663;49.120;9.730;2023-03-20T08:43:34;14.87;;;14.07;;
9254;SDS011;4663;49.120;9.730;2023-03-20T08:46:00;14.50;;;13.70;;
9254;SDS011;4663;49.120;9.730;2023-03-20T08:48:25;15.35;;;14.63;;
9254;SDS011;4663;49.120;9.730;2023-03-20T08:50:53;13.25;;;12.65;;
9254;SDS011;4663;49.120;9.730;2023-03-20T08:53:18;13.55;;;12.90;;
9254;SDS011;4663;49.120;9.730;2023-03-20T08:55:50;14.30;;;13.60;;
9254;SDS011;4663;49.120;9.730;2023-03-20T08:58:17;14.52;;;13.82;;
9254;SDS011;4663;49.120;9.730;2023-03-20T09:00:43;13.52;;;12.80;;
9254;SDS011;4663;49.120;9.730;2023-03-20T09:03:13;13.88;;;13.18;;
9254;SDS011;4663;49.120;9.730;2023-03-20T09:05:40;14.75;;;14.05;;
9254;SDS011;4663;49.120;9.730;2023-03-20T09:08:09;14.48;;;13.73;;
9254;SDS011;4663;49.120;9.730;2023-03-20T09:10:34;13.55;;;12.88;;
9254;SDS011;4663;49.120;9.730;2023-03-20T09:13:00;13.07;;;12.38;;
9254;SDS011;4663;49.120;9.730;2023-03-20T09:15:25;14.75;;;13.95;;
9254;SDS011;4663;49.120;9.730;2023-03-20T09:17:51;14.77;;;13.93;;
9254;SDS011;4663;49.120;9.730;2023-03-20T09:20:17;14.70;;;13.90;;
9254;SDS011;4663;49.120;9.730;2023-03-20T09:22:42;15.85;;;14.95;;
9254;SDS011;4663;49.120;9.730;2023-03-20T09:25:09;13.60;;;12.80;;
9254;SDS011;4663;49.120;9.730;2023-03-20T09:27:35;13.35;;;12.65;;
9254;SDS011;4663;49.120;9.730;2023-03-20T09:30:01;14.48;;;13.52;;
9254;SDS011;4663;49.120;9.730;2023-03-20T09:32:26;14.93;;;14.13;;
9254;SDS011;4663;49.120;9.730;2023-03-20T09:34:52;15.30;;;14.45;;
9254;SDS011;4663;49.120;9.730;2023-03-20T09:37:17;14.95;;;14.15;;
9254;SDS011;4663;49.120;9.730;2023-03-20T09:39:43;15.27;;;14.48;;
9254;SDS011;4663;49.120;9.730;2023-03-20T09:48:26;14.30;;;13.52;;
9254;SDS011;4663;49.120;9.730;2023-03-20T09:53:41;16.73;;;15.73;;
9254;SDS011;4663;49.120;9.730;2023-03-20T09:56:16;15.63;;;14.30;;
9254;SDS011;4663;49.120;9.730;2023-03-20T09:58:51;15.82;;;14.93;;
9254;SDS011;4663;49.120;9.730;2023-03-20T10:01:19;14.90;;;14.13;;
9254;SDS011;4663;49.120;9.730;2023-03-20T10:03:52;16.60;;;15.68;;
9254;SDS011;4663;49.120;9.730;2023-03-20T10:06:21;16.30;;;15.40;;
9254;SDS011;4663;49.120;9.730;2023-03-20T10:08:47;14.48;;;13.70;;
9254;SDS011;4663;49.120;9.730;2023-03-20T10:16:37;14.10;;;13.35;;
9254;SDS011;4663;49.120;9.730;2023-03-20T10:21:38;15.77;;;14.82;;
9254;SDS011;4663;49.120;9.730;2023-03-20T10:24:54;14.80;;;14.07;;
9254;SDS011;4663;49.120;9.730;2023-03-20T10:27:05;14.45;;;13.65;;
9254;SDS011;4663;49.120;9.730;2023-03-20T10:32:54;16.88;;;15.88;;
9254;SDS011;4663;49.120;9.730;2023-03-20T10:36:24;22.08;;;20.92;;
9254;SDS011;4663;49.120;9.730;2023-03-20T10:38:46;24.60;;;23.40;;
9254;SDS011;4663;49.120;9.730;2023-03-20T10:41:27;27.10;;;25.73;;
9254;SDS011;4663;49.120;9.730;2023-03-20T10:43:56;28.35;;;26.88;;
9254;SDS011;4663;49.120;9.730;2023-03-20T10:46:30;30.52;;;28.95;;
9254;SDS011;4663;49.120;9.730;2023-03-20T10:49:13;27.85;;;26.42;;
9254;SDS011;4663;49.120;9.730;2023-03-20T10:51:50;20.67;;;19.55;;
9254;SDS011;4663;49.120;9.730;2023-03-20T10:56:52;20.52;;;19.45;;
9254;SDS011;4663;49.120;9.730;2023-03-20T10:59:21;25.42;;;24.17;;
9254;SDS011;4663;49.120;9.730;2023-03-20T11:01:50;29.83;;;28.33;;
9254;SDS011;4663;49.120;9.730;2023-03-20T11:04:16;30.88;;;29.15;;
9254;SDS011;4663;49.120;9.730;2023-03-20T11:06:53;30.15;;;28.58;;
9254;SDS011;4663;49.120;9.730;2023-03-20T11:09:21;30.45;;;28.70;;
9254;SDS011;4663;49.120;9.730;2023-03-20T11:11:50;29.88;;;28.33;;
9254;SDS011;4663;49.120;9.730;2023-03-20T11:14:20;28.08;;;26.70;;
9254;SDS011;4663;49.120;9.730;2023-03-20T11:16:47;29.40;;;27.95;;
9254;SDS011;4663;49.120;9.730;2023-03-20T11:19:15;27.73;;;26.35;;
9254;SDS011;4663;49.120;9.730;2023-03-20T11:21:52;21.23;;;19.98;;
9254;SDS011;4663;49.120;9.730;2023-03-20T11:24:38;18.88;;;17.90;;
9254;SDS011;4663;49.120;9.730;2023-03-20T11:27:16;17.58;;;16.65;;
9254;SDS011;4663;49.120;9.730;2023-03-20T11:29:45;19.55;;;18.58;;
9254;SDS011;4663;49.120;9.730;2023-03-20T11:34:41;24.15;;;22.95;;
9254;SDS011;4663;49.120;9.730;2023-03-20T11:37:23;23.60;;;22.40;;
9254;SDS011;4663;49.120;9.730;2023-03-20T11:40:35;17.20;;;16.30;;
9254;SDS011;4663;49.120;9.730;2023-03-20T11:43:02;20.80;;;19.70;;
9254;SDS011;4663;49.120;9.730;2023-03-20T11:45:35;25.67;;;24.33;;
9254;SDS011;4663;49.120;9.730;2023-03-20T11:48:02;25.55;;;24.23;;
9254;SDS011;4663;49.120;9.730;2023-03-20T11:50:33;20.73;;;19.60;;
9254;SDS011;4663;49.120;9.730;2023-03-20T11:53:01;17.83;;;16.83;;
9254;SDS011;4663;49.120;9.730;2023-03-20T11:55:28;27.05;;;25.63;;
9254;SDS011;4663;49.120;9.730;2023-03-20T11:58:00;30.20;;;28.65;;
9254;SDS011;4663;49.120;9.730;2023-03-20T12:00:37;30.48;;;28.80;;
9254;SDS011;4663;49.120;9.730;2023-03-20T12:03:14;29.23;;;27.70;;
9254;SDS011;4663;49.120;9.730;2023-03-20T12:06:01;30.05;;;28.50;;
9254;SDS011;4663;49.120;9.730;2023-03-20T12:08:31;26.30;;;24.95;;
9254;SDS011;4663;49.120;9.730;2023-03-20T12:11:00;25.58;;;24.23;;
9254;SDS011;4663;49.120;9.730;2023-03-20T12:13:36;30.33;;;28.70;;
9254;SDS011;4663;49.120;9.730;2023-03-20T12:16:06;30.83;;;29.15;;
9254;SDS011;4663;49.120;9.730;2023-03-20T12:21:32;27.42;;;26.02;;
9254;SDS011;4663;49.120;9.730;2023-03-20T12:24:08;27.67;;;26.25;;
9254;SDS011;4663;49.120;9.730;2023-03-20T12:26:55;27.75;;;26.15;;
9254;SDS011;4663;49.120;9.730;2023-03-20T12:29:39;27.60;;;26.10;;
9254;SDS011;4663;49.120;9.730;2023-03-20T12:34:55;28.13;;;26.65;;
9254;SDS011;4663;49.120;9.730;2023-03-20T12:37:26;27.77;;;26.35;;
9254;SDS011;4663;49.120;9.730;2023-03-20T12:39:56;28.75;;;27.10;;
9254;SDS011;4663;49.120;9.730;2023-03-20T12:42:47;26.50;;;25.08;;
9254;SDS011;4663;49.120;9.730;2023-03-20T12:45:27;30.15;;;28.58;;
9254;SDS011;4663;49.120;9.730;2023-03-20T12:56:46;21.95;;;20.67;;
9254;SDS011;4663;49.120;9.730;2023-03-20T13:02:00;19.50;;;18.33;;
9254;SDS011;4663;49.120;9.730;2023-03-20T13:20:31;30.52;;;28.98;;
9254;SDS011;4663;49.120;9.730;2023-03-20T13:28:34;32.38;;;30.75;;
9254;SDS011;4663;49.120;9.730;2023-03-20T13:39:28;32.88;;;31.25;;
9254;SDS011;4663;49.120;9.730;2023-03-20T13:41:59;32.15;;;30.58;;
9254;SDS011;4663;49.120;9.730;2023-03-20T13:44:28;29.88;;;28.42;;
9254;SDS011;4663;49.120;9.730;2023-03-20T13:47:02;28.38;;;26.83;;
9254;SDS011;4663;49.120;9.730;2023-03-20T13:49:36;26.10;;;24.75;;
9254;SDS011;4663;49.120;9.730;2023-03-20T14:05:53;19.40;;;18.40;;
9254;SDS011;4663;49.120;9.730;2023-03-20T14:13:49;21.00;;;19.88;;
9254;SDS011;4663;49.120;9.730;2023-03-20T14:16:19;26.55;;;25.27;;
9254;SDS011;4663;49.120;9.730;2023-03-20T14:18:46;23.65;;;22.50;;
9254;SDS011;4663;49.120;9.730;2023-03-20T14:21:17;22.25;;;21.13;;
9254;SDS011;4663;49.120;9.730;2023-03-20T14:23:56;22.35;;;21.27;;
9254;SDS011;4663;49.120;9.730;2023-03-20T14:26:26;24.20;;;22.88;;
9254;SDS011;4663;49.120;9.730;2023-03-20T14:28:58;28.13;;;26.75;;
9254;SDS011;4663;49.120;9.730;2023-03-20T14:31:30;25.58;;;24.30;;
9254;SDS011;4663;49.120;9.730;2023-03-20T14:34:12;23.15;;;21.98;;
9254;SDS011;4663;49.120;9.730;2023-03-20T14:47:44;17.77;;;16.83;;
9254;SDS011;4663;49.120;9.730;2023-03-20T14:57:53;17.65;;;16.65;;
9254;SDS011;4663;49.120;9.730;2023-03-20T15:00:28;18.75;;;17.75;;
9254;SDS011;4663;49.120;9.730;2023-03-20T15:05:35;18.02;;;17.00;;
9254;SDS011;4663;49.120;9.730;2023-03-20T15:08:11;17.75;;;16.85;;
9254;SDS011;4663;49.120;9.730;2023-03-20T15:11:04;21.10;;;19.77;;
9254;SDS011;4663;49.120;9.730;2023-03-20T15:13:33;24.48;;;22.40;;
9254;SDS011;4663;49.120;9.730;2023-03-20T15:16:10;21.38;;;19.88;;
9254;SDS011;4663;49.120;9.730;2023-03-20T15:18:49;18.30;;;17.10;;
9254;SDS011;4663;49.120;9.730;2023-03-20T15:21:37;16.05;;;15.25;;
9254;SDS011;4663;49.120;9.730;2023-03-20T15:24:03;17.67;;;16.75;;
9254;SDS011;4663;49.120;9.730;2023-03-20T15:26:31;16.95;;;16.05;;
9254;SDS011;4663;49.120;9.730;2023-03-20T15:28:59;17.90;;;16.85;;
9254;SDS011;4663;49.120;9.730;2023-03-20T15:31:31;16.20;;;15.38;;
9254;SDS011;4663;49.120;9.730;2023-03-20T15:33:59;17.17;;;16.25;;
9254;SDS011;4663;49.120;9.730;2023-03-20T15:36:27;18.20;;;16.95;;
9254;SDS011;4663;49.120;9.730;2023-03-20T15:39:00;17.25;;;16.10;;
9254;SDS011;4663;49.120;9.730;2023-03-20T15:41:33;15.93;;;15.13;;
9254;SDS011;4663;49.120;9.730;2023-03-20T15:46:39;21.55;;;20.48;;
9254;SDS011;4663;49.120;9.730;2023-03-20T15:49:05;20.98;;;19.88;;
9254;SDS011;4663;49.120;9.730;2023-03-20T15:51:31;20.88;;;19.73;;
9254;SDS011;4663;49.120;9.730;2023-03-20T15:54:00;21.25;;;20.17;;
9254;SDS011;4663;49.120;9.730;2023-03-20T15:56:31;22.20;;;21.02;;
9254;SDS011;4663;49.120;9.730;2023-03-20T15:58:59;22.20;;;21.00;;
9254;SDS011;4663;49.120;9.730;2023-03-20T16:01:24;21.83;;;20.42;;
9254;SDS011;4663;49.120;9.730;2023-03-20T16:03:50;23.95;;;22.42;;
9254;SDS011;4663;49.120;9.730;2023-03-20T16:06:21;25.17;;;23.48;;
9254;SDS011;4663;49.120;9.730;2023-03-20T16:08:58;25.90;;;24.42;;
9254;SDS011;4663;49.120;9.730;2023-03-20T16:11:37;25.88;;;24.48;;
9254;SDS011;4663;49.120;9.730;2023-03-20T16:14:04;24.92;;;23.58;;
9254;SDS011;4663;49.120;9.730;2023-03-20T16:16:32;24.88;;;23.35;;
9254;SDS011;4663;49.120;9.730;2023-03-20T16:19:02;34.08;;;31.63;;
9254;SDS011;4663;49.120;9.730;2023-03-20T16:21:30;28.88;;;26.98;;
9254;SDS011;4663;49.120;9.730;2023-03-20T16:23:59;29.52;;;27.83;;
9254;SDS011;4663;49.120;9.730;2023-03-20T16:26:29;26.30;;;24.90;;
9254;SDS011;4663;49.120;9.730;2023-03-20T16:28:56;26.88;;;25.42;;
9254;SDS011;4663;49.120;9.730;2023-03-20T16:31:27;28.00;;;26.60;;
9254;SDS011;4663;49.120;9.730;2023-03-20T16:34:01;27.60;;;26.10;;
9254;SDS011;4663;49.120;9.730;2023-03-20T16:36:31;26.45;;;25.15;;
9254;SDS011;4663;49.120;9.730;2023-03-20T16:41:42;26.58;;;25.27;;
9254;SDS011;4663;49.120;9.730;2023-03-20T16:44:16;25.30;;;23.90;;
9254;SDS011;4663;49.120;9.730;2023-03-20T16:46:56;27.05;;;25.60;;
9254;SDS011;4663;49.120;9.730;2023-03-20T16:52:02;23.10;;;21.83;;
9254;SDS011;4663;49.120;9.730;2023-03-20T16:54:33;21.88;;;20.77;;
9254;SDS011;4663;49.120;9.730;2023-03-20T16:57:00;21.45;;;20.30;;
9254;SDS011;4663;49.120;9.730;2023-03-20T16:59:28;19.85;;;18.77;;
9254;SDS011;4663;49.120;9.730;2023-03-20T17:01:54;19.20;;;18.10;;
9254;SDS011;4663;49.120;9.730;2023-03-20T17:04:34;19.35;;;18.30;;
9254;SDS011;4663;49.120;9.730;2023-03-20T17:09:33;15.45;;;14.68;;
9254;SDS011;4663;49.120;9.730;2023-03-20T17:14:37;15.07;;;14.35;;
9254;SDS011;4663;49.120;9.730;2023-03-20T17:17:10;14.27;;;13.48;;
9254;SDS011;4663;49.120;9.730;2023-03-20T17:19:36;13.85;;;13.05;;
9254;SDS011;4663;49.120;9.730;2023-03-20T17:22:08;15.60;;;14.18;;
9254;SDS011;4663;49.120;9.730;2023-03-20T17:24:38;13.23;;;12.52;;
9254;SDS011;4663;49.120;9.730;2023-03-20T17:27:04;14.10;;;13.40;;
9254;SDS011;4663;49.120;9.730;2023-03-20T17:29:29;15.32;;;14.50;;
9254;SDS011;4663;49.120;9.730;2023-03-20T17:31:55;13.43;;;12.73;;
9254;SDS011;4663;49.120;9.730;2023-03-20T17:34:20;13.32;;;12.63;;
9254;SDS011;4663;49.120;9.730;2023-03-20T17:36:46;14.85;;;14.05;;
9254;SDS011;4663;49.120;9.730;2023-03-20T17:39:18;14.10;;;13.30;;
9254;SDS011;4663;49.120;9.730;2023-03-20T17:41:45;14.63;;;13.63;;
9254;SDS011;4663;49.120;9.730;2023-03-20T17:44:11;14.10;;;13.40;;
9254;SDS011;4663;49.120;9.730;2023-03-20T17:46:36;13.45;;;12.75;;
9254;SDS011;4663;49.120;9.730;2023-03-20T17:49:03;14.87;;;14.07;;
9254;SDS011;4663;49.120;9.730;2023-03-20T17:51:30;15.23;;;14.33;;
9254;SDS011;4663;49.120;9.730;2023-03-20T17:53:57;15.43;;;14.53;;
9254;SDS011;4663;49.120;9.730;2023-03-20T17:56:23;19.90;;;18.80;;